createdAt,value
2017-08-11T00:00:49.122Z,15.35
2017-08-11T00:03:16.573Z,15.20
2017-08-11T00:05:44.033Z,15.27
2017-08-11T00:08:11.504Z,15.15
2017-08-11T00:10:38.962Z,15.10
2017-08-11T00:13:06.469Z,15.21
2017-08-11T00:15:33.950Z,15.28
2017-08-11T00:18:01.401Z,15.06
2017-08-11T00:20:28.853Z,15.28
2017-08-11T00:22:56.347Z,15.22
2017-08-11T00:25:23.844Z,15.23
2017-08-11T00:27:51.317Z,15.21
2017-08-11T00:30:18.770Z,15.17
2017-08-11T00:32:46.252Z,15.24
2017-08-11T00:35:13.733Z,15.32
2017-08-11T00:37:41.189Z,15.35
2017-08-11T00:40:08.645Z,15.27
2017-08-11T00:42:36.127Z,15.32
2017-08-11T00:45:03.588Z,15.34
2017-08-11T00:47:31.069Z,15.29
2017-08-11T00:49:58.521Z,15.35
2017-08-11T00:52:25.974Z,15.30
2017-08-11T00:54:53.452Z,15.18
2017-08-11T00:57:20.914Z,15.13
2017-08-11T00:59:48.388Z,15.20
2017-08-11T01:02:15.845Z,14.96
2017-08-11T01:04:43.321Z,15.04
2017-08-11T01:07:10.793Z,15.08
2017-08-11T01:09:38.249Z,14.94
2017-08-11T01:12:05.725Z,15.15
2017-08-11T01:14:33.177Z,15.09
2017-08-11T01:17:00.653Z,15.06
2017-08-11T01:19:28.105Z,14.97
2017-08-11T01:21:55.560Z,14.99
2017-08-11T01:24:23.029Z,14.88
2017-08-11T01:26:50.477Z,14.99
2017-08-11T01:29:17.953Z,14.97
2017-08-11T01:31:45.408Z,14.99
2017-08-11T01:34:12.890Z,14.97
2017-08-11T01:36:40.365Z,14.94
2017-08-11T01:39:07.817Z,15.09
2017-08-11T01:41:35.298Z,15.11
2017-08-11T01:44:02.778Z,14.78
2017-08-11T01:46:30.279Z,14.93
2017-08-11T01:48:57.735Z,14.96
2017-08-11T01:51:25.212Z,14.92
2017-08-11T01:53:52.682Z,14.96
2017-08-11T01:56:20.157Z,15.05
2017-08-11T01:58:47.631Z,14.92
2017-08-11T02:01:15.079Z,14.96
2017-08-11T02:03:42.550Z,14.98
2017-08-11T02:06:10.037Z,14.92
2017-08-11T02:08:37.897Z,14.85
2017-08-11T02:11:05.413Z,14.92
2017-08-11T02:13:32.888Z,14.89
2017-08-11T02:16:00.337Z,14.83
2017-08-11T02:18:27.823Z,14.86
2017-08-11T02:20:55.680Z,14.83
2017-08-11T02:23:23.125Z,14.86
2017-08-11T02:25:50.611Z,14.83
2017-08-11T02:28:18.073Z,14.76
2017-08-11T02:30:45.524Z,14.79
2017-08-11T02:33:12.992Z,14.72
2017-08-11T02:35:40.472Z,14.82
2017-08-11T02:38:07.950Z,14.84
2017-08-11T02:40:35.404Z,14.89
2017-08-11T02:43:02.886Z,14.79
2017-08-11T02:45:30.338Z,14.75
2017-08-11T02:47:57.815Z,14.81
2017-08-11T02:50:25.297Z,14.55
2017-08-11T02:52:52.761Z,14.16
2017-08-11T02:55:20.218Z,14.00
2017-08-11T02:57:47.701Z,14.00
2017-08-11T03:00:15.156Z,13.98
2017-08-11T03:02:42.609Z,14.00
2017-08-11T03:05:10.080Z,13.99
2017-08-11T03:07:37.539Z,13.95
2017-08-11T03:10:05.012Z,13.95
2017-08-11T03:12:32.460Z,13.99
2017-08-11T03:14:59.933Z,13.94
2017-08-11T03:17:27.390Z,13.95
2017-08-11T03:19:54.850Z,13.85
2017-08-11T03:22:22.324Z,13.68
2017-08-11T03:24:49.776Z,13.64
2017-08-11T03:27:17.230Z,13.74
2017-08-11T03:29:44.715Z,13.72
2017-08-11T03:32:12.165Z,13.70
2017-08-11T03:34:39.649Z,13.63
2017-08-11T03:37:07.121Z,13.60
2017-08-11T03:39:34.597Z,13.60
2017-08-11T03:42:02.056Z,13.69
2017-08-11T03:44:29.509Z,13.70
2017-08-11T03:46:56.989Z,13.74
2017-08-11T03:49:24.465Z,13.84
2017-08-11T03:51:51.932Z,13.89
2017-08-11T03:54:19.378Z,13.88
2017-08-11T03:56:46.851Z,13.90
2017-08-11T03:59:14.314Z,13.99
2017-08-11T04:01:41.765Z,14.06
2017-08-11T04:04:09.240Z,13.95
2017-08-11T04:06:36.724Z,13.85
2017-08-11T04:09:04.186Z,13.98
2017-08-11T04:11:31.652Z,13.52
2017-08-11T04:13:59.148Z,13.52
2017-08-11T04:16:26.633Z,13.52
2017-08-11T04:18:54.118Z,13.48
2017-08-11T04:21:21.576Z,13.41
2017-08-11T04:23:49.053Z,13.56
2017-08-11T04:26:16.528Z,13.52
2017-08-11T04:28:43.979Z,13.73
2017-08-11T04:31:11.457Z,13.76
2017-08-11T04:33:38.917Z,13.67
2017-08-11T04:36:06.407Z,13.65
2017-08-11T04:38:33.893Z,13.55
2017-08-11T04:41:01.373Z,13.68
2017-08-11T04:43:28.834Z,13.87
2017-08-11T04:45:56.317Z,14.22
2017-08-11T04:48:23.807Z,14.02
2017-08-11T04:50:51.266Z,13.98
2017-08-11T04:53:18.733Z,14.65
2017-08-11T04:55:46.212Z,14.05
2017-08-11T04:58:13.672Z,14.13
2017-08-11T05:00:41.161Z,13.94
2017-08-11T05:03:08.621Z,13.88
2017-08-11T05:05:36.078Z,13.79
2017-08-11T05:08:03.549Z,13.79
2017-08-11T05:10:31.026Z,13.69
2017-08-11T05:12:58.509Z,13.73
2017-08-11T05:15:25.963Z,13.79
2017-08-11T05:17:53.418Z,13.86
2017-08-11T05:20:20.910Z,13.98
2017-08-11T05:22:48.365Z,13.94
2017-08-11T05:25:15.853Z,14.17
2017-08-11T05:27:43.321Z,14.04
2017-08-11T05:30:10.785Z,13.92
2017-08-11T05:32:38.270Z,13.90
2017-08-11T05:35:05.762Z,13.85
2017-08-11T05:37:33.216Z,13.79
2017-08-11T05:40:00.680Z,13.89
2017-08-11T05:42:28.157Z,13.93
2017-08-11T05:44:55.633Z,14.10
2017-08-11T05:47:23.095Z,14.14
2017-08-11T05:49:50.562Z,14.08
2017-08-11T05:52:18.047Z,13.95
2017-08-11T05:54:45.535Z,14.20
2017-08-11T05:57:13.013Z,13.98
2017-08-11T05:59:40.485Z,13.93
2017-08-11T06:02:07.936Z,13.93
2017-08-11T06:04:35.418Z,13.74
2017-08-11T06:07:02.909Z,13.52
2017-08-11T06:09:30.423Z,13.60
2017-08-11T06:11:57.921Z,13.52
2017-08-11T06:14:25.376Z,13.58
2017-08-11T06:16:52.825Z,13.52
2017-08-11T06:19:20.293Z,13.40
2017-08-11T06:21:47.754Z,13.23
2017-08-11T06:24:15.234Z,13.24
2017-08-11T06:26:42.720Z,13.36
2017-08-11T06:29:10.176Z,13.38
2017-08-11T06:31:37.632Z,13.40
2017-08-11T06:34:05.102Z,13.30
2017-08-11T06:36:33.181Z,13.37
2017-08-11T06:39:00.636Z,13.31
2017-08-11T06:41:28.122Z,13.36
2017-08-11T06:43:55.582Z,13.51
2017-08-11T06:46:23.036Z,13.78
2017-08-11T06:48:50.521Z,13.81
2017-08-11T06:51:17.976Z,14.35
2017-08-11T06:53:45.454Z,14.10
2017-08-11T06:56:12.908Z,13.71
2017-08-11T06:58:40.383Z,13.81
2017-08-11T07:01:07.865Z,13.84
2017-08-11T07:03:35.322Z,13.85
2017-08-11T07:06:02.774Z,13.95
2017-08-11T07:08:30.246Z,13.85
2017-08-11T07:10:57.684Z,13.74
2017-08-11T07:13:25.148Z,13.70
2017-08-11T07:15:52.621Z,13.63
2017-08-11T07:18:20.071Z,13.59
2017-08-11T07:20:47.542Z,13.70
2017-08-11T07:23:14.988Z,13.66
2017-08-11T07:25:42.457Z,13.64
2017-08-11T07:28:09.903Z,13.79
2017-08-11T07:30:37.354Z,14.14
2017-08-11T07:33:04.830Z,13.91
2017-08-11T07:35:32.281Z,14.26
2017-08-11T07:37:59.725Z,14.20
2017-08-11T07:40:27.217Z,14.00
2017-08-11T07:42:54.677Z,14.01
2017-08-11T07:45:22.129Z,14.40
2017-08-11T07:47:49.610Z,14.15
2017-08-11T07:50:17.069Z,14.14
2017-08-11T07:52:44.521Z,14.12
2017-08-11T07:55:11.993Z,14.11
2017-08-11T07:57:39.447Z,14.07
2017-08-11T08:00:06.919Z,14.12
2017-08-11T08:02:34.368Z,14.10
2017-08-11T08:05:01.838Z,14.24
2017-08-11T08:07:29.308Z,14.23
2017-08-11T08:09:56.758Z,14.37
2017-08-11T08:12:24.232Z,14.46
2017-08-11T08:14:51.701Z,14.47
2017-08-11T08:17:19.148Z,14.21
2017-08-11T08:19:46.635Z,14.11
2017-08-11T08:22:14.094Z,14.06
2017-08-11T08:24:41.573Z,14.25
2017-08-11T08:27:09.016Z,14.98
2017-08-11T08:29:36.467Z,14.77
2017-08-11T08:32:03.953Z,14.43
2017-08-11T08:34:31.401Z,14.68
2017-08-11T08:36:58.853Z,14.43
2017-08-11T08:39:26.329Z,14.42
2017-08-11T08:41:53.784Z,14.22
2017-08-11T08:44:21.241Z,14.52
2017-08-11T08:46:48.723Z,14.39
2017-08-11T08:49:16.169Z,14.42
2017-08-11T08:51:43.618Z,14.34
2017-08-11T08:54:11.089Z,14.31
2017-08-11T08:56:38.541Z,14.23
2017-08-11T08:59:06.020Z,14.05
2017-08-11T09:01:33.485Z,14.10
2017-08-11T09:04:00.946Z,14.34
2017-08-11T09:06:28.409Z,14.34
2017-08-11T09:08:55.896Z,14.23
2017-08-11T09:11:23.349Z,14.21
2017-08-11T09:13:50.802Z,13.87
2017-08-11T09:16:18.297Z,13.91
2017-08-11T09:18:45.755Z,13.81
2017-08-11T09:21:13.212Z,13.83
2017-08-11T09:23:40.709Z,13.66
2017-08-11T11:34:55.997Z,14.15
2017-08-11T11:37:23.441Z,14.08
2017-08-11T11:39:50.922Z,14.19
2017-08-11T11:42:18.388Z,14.05
2017-08-11T11:44:45.841Z,14.04
2017-08-11T11:47:13.312Z,14.05
2017-08-11T11:49:40.769Z,14.17
2017-08-11T11:52:08.237Z,14.07
2017-08-11T11:54:35.712Z,14.28
2017-08-11T11:57:44.698Z,14.16
2017-08-11T12:00:12.178Z,14.16
2017-08-11T12:02:39.649Z,14.18
2017-08-11T12:05:07.124Z,14.13
2017-08-11T12:07:34.574Z,14.45
2017-08-11T12:10:02.040Z,14.55
2017-08-11T12:12:29.505Z,14.65
2017-08-11T12:14:56.983Z,14.67
2017-08-11T12:17:24.473Z,14.71
2017-08-11T12:19:51.934Z,14.58
2017-08-11T12:22:19.390Z,14.43
2017-08-11T12:24:46.861Z,14.49
2017-08-11T12:27:14.445Z,14.96
2017-08-11T12:29:41.935Z,14.85
2017-08-11T12:32:09.393Z,15.65
2017-08-11T12:34:36.849Z,16.01
2017-08-11T12:37:04.330Z,16.10
2017-08-11T12:39:31.809Z,16.41
2017-08-11T12:41:59.263Z,16.98
2017-08-11T12:44:26.708Z,16.55
2017-08-11T12:46:54.196Z,16.66
2017-08-11T12:49:21.649Z,17.02
2017-08-11T12:51:49.119Z,16.80
2017-08-11T12:54:16.573Z,16.25
2017-08-11T12:56:44.016Z,16.78
2017-08-11T12:59:11.477Z,16.89
2017-08-11T13:01:38.922Z,17.12
2017-08-11T13:04:06.414Z,17.24
2017-08-11T13:06:33.870Z,17.31
2017-08-11T13:09:01.313Z,17.51
2017-08-11T13:11:28.795Z,17.45
2017-08-11T13:13:56.236Z,17.42
2017-08-11T13:16:23.725Z,17.48
2017-08-11T13:18:51.173Z,17.65
2017-08-11T13:21:18.650Z,17.06
2017-08-11T13:23:46.144Z,17.03
2017-08-11T13:26:13.618Z,16.81
2017-08-11T13:28:41.087Z,16.70
2017-08-11T13:31:08.553Z,16.26
2017-08-11T13:33:36.080Z,16.39
2017-08-11T13:36:03.529Z,16.40
2017-08-11T13:38:30.976Z,16.60
2017-08-11T13:40:58.449Z,16.86
2017-08-11T13:43:25.896Z,17.51
2017-08-11T13:45:53.365Z,16.98
2017-08-11T13:48:20.808Z,16.98
2017-08-11T13:50:48.251Z,16.42
2017-08-11T13:53:15.721Z,16.46
2017-08-11T13:55:43.193Z,16.23
2017-08-11T13:58:10.649Z,16.51
2017-08-11T14:00:38.125Z,16.73
2017-08-11T14:03:05.565Z,17.37
2017-08-11T14:05:33.032Z,17.58
2017-08-11T14:08:00.503Z,17.07
2017-08-11T14:10:27.951Z,17.21
2017-08-11T14:12:55.425Z,17.09
2017-08-11T14:15:22.869Z,17.36
2017-08-11T14:17:50.316Z,17.18
2017-08-11T14:20:17.789Z,17.51
2017-08-11T14:22:45.237Z,17.77
2017-08-11T14:25:12.704Z,17.95
2017-08-11T14:27:40.186Z,18.08
2017-08-11T14:30:07.637Z,17.49
2017-08-11T14:32:35.096Z,17.41
2017-08-11T14:35:02.582Z,17.27
2017-08-11T14:37:30.044Z,17.24
2017-08-11T14:39:57.497Z,17.54
2017-08-11T14:42:24.961Z,17.52
2017-08-11T14:44:52.424Z,17.45
2017-08-11T14:47:19.870Z,17.85
2017-08-11T14:49:47.346Z,17.96
2017-08-11T14:52:14.816Z,17.53
2017-08-11T14:54:42.269Z,18.18
2017-08-11T14:57:09.737Z,18.52
2017-08-11T14:59:37.180Z,19.49
2017-08-11T15:02:04.642Z,20.63
2017-08-11T15:04:32.109Z,20.11
2017-08-11T15:06:59.552Z,20.40
2017-08-11T15:09:27.023Z,18.93
2017-08-11T15:11:54.481Z,18.56
2017-08-11T15:14:21.960Z,18.09
2017-08-11T15:16:49.393Z,17.81
2017-08-11T15:19:16.886Z,17.64
2017-08-11T15:21:44.333Z,17.36
2017-08-11T15:24:11.782Z,16.94
2017-08-11T15:26:39.337Z,16.95
2017-08-11T15:29:06.786Z,16.94
2017-08-11T15:31:34.229Z,16.93
2017-08-11T15:34:01.726Z,17.09
2017-08-11T15:36:29.162Z,17.04
2017-08-11T15:38:56.610Z,17.05
2017-08-11T15:41:24.077Z,17.32
2017-08-11T15:43:51.550Z,18.00
2017-08-11T15:46:19.013Z,19.40
2017-08-11T15:48:46.462Z,19.22
2017-08-11T15:51:13.948Z,20.80
2017-08-11T15:53:41.428Z,21.57
2017-08-11T15:56:08.884Z,21.53
2017-08-11T15:58:36.322Z,22.32
2017-08-11T16:01:03.798Z,21.16
2017-08-11T16:03:31.253Z,20.89
2017-08-11T16:05:58.707Z,20.62
2017-08-11T16:08:26.173Z,20.98
2017-08-11T16:10:53.617Z,21.89
2017-08-11T16:13:21.106Z,22.51
2017-08-11T16:15:48.560Z,21.96
2017-08-11T16:18:16.014Z,21.84
2017-08-11T16:20:43.488Z,20.09
2017-08-11T16:23:10.933Z,18.83
2017-08-11T16:25:38.409Z,18.80
2017-08-11T16:28:05.857Z,18.64
2017-08-11T16:30:33.465Z,18.87
2017-08-11T16:33:00.949Z,18.52
2017-08-11T16:35:28.398Z,18.06
2017-08-11T16:37:55.841Z,18.18
2017-08-11T16:40:23.313Z,17.97
2017-08-11T16:42:50.778Z,18.25
2017-08-11T16:45:18.227Z,18.17
2017-08-11T16:47:45.704Z,18.12
2017-08-11T16:50:13.149Z,18.01
2017-08-11T16:52:40.609Z,17.92
2017-08-11T16:55:08.056Z,18.08
2017-08-11T16:57:35.519Z,18.01
2017-08-11T17:00:03.014Z,17.81
2017-08-11T17:02:30.465Z,17.55
2017-08-11T17:04:57.933Z,17.56
2017-08-11T17:07:25.409Z,17.55
2017-08-11T17:09:52.864Z,17.50
2017-08-11T17:12:20.329Z,17.37
2017-08-11T17:14:47.773Z,17.31
2017-08-11T17:18:39.571Z,17.25
2017-08-11T17:21:07.021Z,17.23
2017-08-11T17:23:34.469Z,17.13
2017-08-11T17:26:01.945Z,17.38
2017-08-11T17:28:29.388Z,17.35
2017-08-11T17:30:56.865Z,17.52
2017-08-11T17:33:24.692Z,17.39
2017-08-11T17:35:52.151Z,17.20
2017-08-11T17:38:19.591Z,17.10
2017-08-11T17:40:47.062Z,17.21
2017-08-11T17:43:14.629Z,17.26
2017-08-11T17:45:42.075Z,17.10
2017-08-11T17:48:09.529Z,17.09
2017-08-11T17:50:37.010Z,16.94
2017-08-11T17:53:04.468Z,17.02
2017-08-11T17:55:31.936Z,17.02
2017-08-11T17:57:59.374Z,16.89
2017-08-11T18:00:26.836Z,16.75
2017-08-11T18:02:54.297Z,16.61
2017-08-11T18:05:21.743Z,16.61
2017-08-11T18:07:49.216Z,16.61
2017-08-11T18:10:16.667Z,16.59
2017-08-11T18:12:44.114Z,16.53
2017-08-11T18:15:11.577Z,16.50
2017-08-11T18:17:39.023Z,16.46
2017-08-11T18:20:06.486Z,16.41
2017-08-11T18:22:33.949Z,16.46
2017-08-11T18:25:01.417Z,16.48
2017-08-11T18:27:28.858Z,16.40
2017-08-11T18:29:56.329Z,16.38
2017-08-11T18:32:23.777Z,16.37
2017-08-11T18:34:51.251Z,16.34
2017-08-11T18:37:18.716Z,16.31
2017-08-11T18:39:46.170Z,16.28
2017-08-11T18:42:13.628Z,16.30
2017-08-11T18:44:41.097Z,16.35
2017-08-11T18:47:08.545Z,16.29
2017-08-11T18:49:36.321Z,16.27
2017-08-11T18:52:03.792Z,16.16
2017-08-11T18:54:31.242Z,16.18
2017-08-11T18:56:58.708Z,16.09
2017-08-11T18:59:26.177Z,16.02
2017-08-11T19:01:53.618Z,16.06
2017-08-11T19:04:21.101Z,16.15
2017-08-11T19:06:48.545Z,16.01
2017-08-11T19:09:16.022Z,15.98
2017-08-11T19:11:43.468Z,15.95
2017-08-11T19:14:10.937Z,15.82
2017-08-11T19:16:38.387Z,15.78
2017-08-11T19:19:05.873Z,15.76
2017-08-11T19:21:33.317Z,15.68
2017-08-11T19:24:00.780Z,15.53
2017-08-11T19:26:28.270Z,15.36
2017-08-11T19:28:55.722Z,15.34
2017-08-11T19:31:23.210Z,15.25
2017-08-11T19:33:50.700Z,15.16
2017-08-11T19:36:18.150Z,15.12
2017-08-11T19:38:45.614Z,15.10
2017-08-11T19:41:13.103Z,14.95
2017-08-11T19:43:40.577Z,14.99
2017-08-11T19:46:08.031Z,14.91
2017-08-11T19:48:35.516Z,14.88
2017-08-11T19:51:02.957Z,14.86
2017-08-11T19:53:30.428Z,14.79
2017-08-11T19:55:57.876Z,14.78
2017-08-11T19:58:25.340Z,14.80
2017-08-11T20:00:52.809Z,14.79
2017-08-11T20:03:20.276Z,14.79
2017-08-11T20:05:47.732Z,14.67
2017-08-11T20:08:15.204Z,14.69
2017-08-11T20:10:42.652Z,14.61
2017-08-11T20:13:10.093Z,14.54
2017-08-11T20:15:37.571Z,14.49
2017-08-11T20:18:05.029Z,14.52
2017-08-11T20:20:32.481Z,14.47
2017-08-11T20:22:59.951Z,14.44
2017-08-11T20:25:27.429Z,14.44
2017-08-11T20:27:54.879Z,14.42
2017-08-11T20:30:22.334Z,14.41
2017-08-11T20:32:49.804Z,14.34
2017-08-11T20:35:17.273Z,14.37
2017-08-11T20:37:44.716Z,14.34
2017-08-11T20:40:12.190Z,14.29
2017-08-11T20:42:39.629Z,14.29
2017-08-11T20:45:07.073Z,14.20
2017-08-11T20:47:34.537Z,14.23
2017-08-11T20:50:01.989Z,14.27
2017-08-11T20:52:29.433Z,14.27
2017-08-11T20:54:56.903Z,14.23
2017-08-11T20:57:24.346Z,14.21
2017-08-11T20:59:51.797Z,14.08
2017-08-11T21:02:19.260Z,14.15
2017-08-11T21:04:46.702Z,14.09
2017-08-11T21:07:14.173Z,14.12
2017-08-11T21:09:41.623Z,14.13
2017-08-11T21:12:09.098Z,14.12
2017-08-11T21:14:36.548Z,14.08
2017-08-11T21:17:04.006Z,14.10
2017-08-11T21:19:31.468Z,14.13
2017-08-11T21:21:58.941Z,14.17
2017-08-11T21:24:26.381Z,14.36
2017-08-11T21:26:53.833Z,14.38
2017-08-11T21:29:21.299Z,14.39
2017-08-11T21:31:48.771Z,14.42
2017-08-11T21:34:16.221Z,14.22
2017-08-11T21:36:43.676Z,14.12
2017-08-11T21:39:11.148Z,13.96
2017-08-11T21:41:38.604Z,13.99
2017-08-11T21:44:06.090Z,14.00
2017-08-11T21:46:33.531Z,13.87
2017-08-11T21:49:00.989Z,13.89
2017-08-11T21:51:28.453Z,13.91
2017-08-11T21:53:55.899Z,13.91
2017-08-11T21:56:23.373Z,13.95
2017-08-11T21:58:50.837Z,13.99
2017-08-11T22:01:18.315Z,13.99
2017-08-11T22:03:45.761Z,14.07
2017-08-11T22:06:19.178Z,14.07
2017-08-11T22:08:46.657Z,13.98
2017-08-11T22:11:14.102Z,14.05
2017-08-11T22:13:41.603Z,14.14
2017-08-11T22:16:09.066Z,14.16
2017-08-11T22:18:36.508Z,14.14
2017-08-11T22:21:03.980Z,14.08
2017-08-11T22:23:31.450Z,14.06
2017-08-11T22:25:58.920Z,14.03
2017-08-11T22:28:26.386Z,14.05
2017-08-11T22:30:53.857Z,13.92
2017-08-11T22:33:21.305Z,13.88
2017-08-11T22:35:48.784Z,13.80
2017-08-11T22:38:16.227Z,13.89
2017-08-11T22:40:43.672Z,13.83
2017-08-11T22:43:11.140Z,13.87
2017-08-11T22:45:38.590Z,13.88
2017-08-11T22:48:06.064Z,13.83
2017-08-11T22:50:33.550Z,13.97
2017-08-11T22:53:01.005Z,13.83
2017-08-11T22:55:28.474Z,13.97
2017-08-11T22:57:55.912Z,13.95
2017-08-11T23:00:23.378Z,13.92
2017-08-11T23:02:50.824Z,13.95
2017-08-11T23:05:18.288Z,13.87
2017-08-11T23:07:45.761Z,13.92
2017-08-11T23:10:13.224Z,14.04
2017-08-11T23:12:40.673Z,13.95
2017-08-11T23:15:08.149Z,13.87
2017-08-11T23:17:35.599Z,13.87
2017-08-11T23:20:03.071Z,13.79
2017-08-11T23:22:30.536Z,13.78
2017-08-11T23:24:57.976Z,13.84
2017-08-11T23:27:25.442Z,13.83
2017-08-11T23:29:52.902Z,13.85
2017-08-11T23:32:20.357Z,13.84
2017-08-11T23:34:47.806Z,13.79
2017-08-11T23:37:15.268Z,13.74
2017-08-11T23:39:42.712Z,13.84
2017-08-11T23:42:10.178Z,13.78
2017-08-11T23:44:37.638Z,13.81
2017-08-11T23:47:05.090Z,13.86
2017-08-11T23:49:33.137Z,13.84
2017-08-11T23:52:00.584Z,13.99
2017-08-11T23:54:28.025Z,14.06
2017-08-11T23:56:55.490Z,14.19
2017-08-11T23:59:22.930Z,14.16
